Terminal Aerodrome Forecast
Issued by NWS Cleveland, OH

Home | Current Version | Previous Version | Graphics & Text | Print | Product List | Glossary On
Versions: 1 2 3 4 5 6 7 8 9 10 11 12 13 14 15 16
642
FTUS41 KCLE 240902 AAA
TAFMFD
TAF AMD
KMFD 240902Z 2409/2506 19010KT P6SM OVC050 WS020/23045KT
     FM241600 22015G25KT P6SM OVC250
     FM250000 21012KT P6SM OVC025=

USA.gov is the U.S. government's official web portal to all federal, state and local government web resources and services.